sensor_id;sensor_type;location;lat;lon;timestamp;P1;durP1;ratioP1;P2;durP2;ratioP2
67819;SDS011;54618;52.018;5.576;2022-12-17T00:02:20;14.30;;;7.35;;
67819;SDS011;54618;52.018;5.576;2022-12-17T00:05:04;14.65;;;7.75;;
67819;SDS011;54618;52.018;5.576;2022-12-17T00:07:54;14.68;;;7.70;;
67819;SDS011;54618;52.018;5.576;2022-12-17T00:10:40;13.55;;;7.40;;
67819;SDS011;54618;52.018;5.576;2022-12-17T00:13:24;13.77;;;7.45;;
67819;SDS011;54618;52.018;5.576;2022-12-17T00:16:08;14.88;;;8.10;;
67819;SDS011;54618;52.018;5.576;2022-12-17T00:18:52;13.93;;;7.47;;
67819;SDS011;54618;52.018;5.576;2022-12-17T00:21:36;13.32;;;7.55;;
67819;SDS011;54618;52.018;5.576;2022-12-17T00:24:20;14.85;;;7.85;;
67819;SDS011;54618;52.018;5.576;2022-12-17T00:27:04;13.63;;;7.57;;
67819;SDS011;54618;52.018;5.576;2022-12-17T00:29:48;15.48;;;7.95;;
67819;SDS011;54618;52.018;5.576;2022-12-17T00:32:32;13.13;;;7.80;;
67819;SDS011;54618;52.018;5.576;2022-12-17T00:35:16;13.50;;;7.78;;
67819;SDS011;54618;52.018;5.576;2022-12-17T00:38:00;14.80;;;8.07;;
67819;SDS011;54618;52.018;5.576;2022-12-17T00:40:49;12.65;;;7.70;;
67819;SDS011;54618;52.018;5.576;2022-12-17T00:43:34;14.30;;;7.28;;
67819;SDS011;54618;52.018;5.576;2022-12-17T00:46:18;12.40;;;7.22;;
67819;SDS011;54618;52.018;5.576;2022-12-17T00:49:02;12.85;;;7.53;;
67819;SDS011;54618;52.018;5.576;2022-12-17T00:51:46;13.77;;;7.85;;
67819;SDS011;54618;52.018;5.576;2022-12-17T00:54:30;14.13;;;7.97;;
67819;SDS011;54618;52.018;5.576;2022-12-17T00:57:15;13.57;;;7.03;;
67819;SDS011;54618;52.018;5.576;2022-12-17T00:59:59;12.43;;;7.10;;
67819;SDS011;54618;52.018;5.576;2022-12-17T01:02:43;16.33;;;7.85;;
67819;SDS011;54618;52.018;5.576;2022-12-17T01:05:27;13.95;;;7.63;;
67819;SDS011;54618;52.018;5.576;2022-12-17T01:08:11;15.40;;;8.35;;
67819;SDS011;54618;52.018;5.576;2022-12-17T01:10:58;13.27;;;7.45;;
67819;SDS011;54618;52.018;5.576;2022-12-17T01:13:46;13.85;;;7.57;;
67819;SDS011;54618;52.018;5.576;2022-12-17T01:16:30;13.52;;;7.47;;
67819;SDS011;54618;52.018;5.576;2022-12-17T01:19:15;13.90;;;7.85;;
67819;SDS011;54618;52.018;5.576;2022-12-17T01:21:59;13.38;;;7.50;;
67819;SDS011;54618;52.018;5.576;2022-12-17T01:24:43;14.23;;;7.15;;
67819;SDS011;54618;52.018;5.576;2022-12-17T01:27:27;13.10;;;7.50;;
67819;SDS011;54618;52.018;5.576;2022-12-17T01:30:11;13.75;;;7.97;;
67819;SDS011;54618;52.018;5.576;2022-12-17T01:33:05;12.95;;;7.40;;
67819;SDS011;54618;52.018;5.576;2022-12-17T01:35:53;12.13;;;7.18;;
67819;SDS011;54618;52.018;5.576;2022-12-17T01:38:38;14.75;;;7.75;;
67819;SDS011;54618;52.018;5.576;2022-12-17T01:41:23;13.13;;;7.30;;
67819;SDS011;54618;52.018;5.576;2022-12-17T01:47:32;13.32;;;7.38;;
67819;SDS011;54618;52.018;5.576;2022-12-17T01:50:21;15.07;;;7.93;;
67819;SDS011;54618;52.018;5.576;2022-12-17T01:53:09;14.15;;;7.88;;
67819;SDS011;54618;52.018;5.576;2022-12-17T01:55:54;13.68;;;7.68;;
67819;SDS011;54618;52.018;5.576;2022-12-17T01:58:39;14.13;;;7.80;;
67819;SDS011;54618;52.018;5.576;2022-12-17T02:01:24;14.75;;;7.65;;
67819;SDS011;54618;52.018;5.576;2022-12-17T02:04:09;13.23;;;7.47;;
67819;SDS011;54618;52.018;5.576;2022-12-17T02:10:19;14.00;;;7.50;;
67819;SDS011;54618;52.018;5.576;2022-12-17T02:13:19;13.05;;;7.55;;
67819;SDS011;54618;52.018;5.576;2022-12-17T02:16:08;12.70;;;6.90;;
67819;SDS011;54618;52.018;5.576;2022-12-17T02:19:24;13.95;;;7.47;;
67819;SDS011;54618;52.018;5.576;2022-12-17T02:25:54;13.98;;;7.75;;
67819;SDS011;54618;52.018;5.576;2022-12-17T02:28:45;13.75;;;7.72;;
67819;SDS011;54618;52.018;5.576;2022-12-17T02:31:32;12.27;;;7.05;;
67819;SDS011;54618;52.018;5.576;2022-12-17T02:34:18;13.95;;;7.57;;
67819;SDS011;54618;52.018;5.576;2022-12-17T02:37:02;14.23;;;7.30;;
67819;SDS011;54618;52.018;5.576;2022-12-17T02:39:46;14.73;;;7.63;;
67819;SDS011;54618;52.018;5.576;2022-12-17T02:42:30;13.02;;;7.15;;
67819;SDS011;54618;52.018;5.576;2022-12-17T02:45:15;15.30;;;7.75;;
67819;SDS011;54618;52.018;5.576;2022-12-17T02:48:00;14.30;;;7.95;;
67819;SDS011;54618;52.018;5.576;2022-12-17T02:50:45;15.20;;;8.32;;
67819;SDS011;54618;52.018;5.576;2022-12-17T02:53:33;12.48;;;7.13;;
67819;SDS011;54618;52.018;5.576;2022-12-17T02:56:23;14.57;;;7.85;;
67819;SDS011;54618;52.018;5.576;2022-12-17T02:59:07;13.80;;;7.95;;
67819;SDS011;54618;52.018;5.576;2022-12-17T03:01:51;13.07;;;7.85;;
67819;SDS011;54618;52.018;5.576;2022-12-17T03:04:35;14.25;;;7.78;;
67819;SDS011;54618;52.018;5.576;2022-12-17T03:07:21;14.18;;;7.65;;
67819;SDS011;54618;52.018;5.576;2022-12-17T03:10:06;14.77;;;8.13;;
67819;SDS011;54618;52.018;5.576;2022-12-17T03:12:50;13.07;;;8.00;;
67819;SDS011;54618;52.018;5.576;2022-12-17T03:15:34;13.40;;;7.90;;
67819;SDS011;54618;52.018;5.576;2022-12-17T03:18:18;12.05;;;7.20;;
67819;SDS011;54618;52.018;5.576;2022-12-17T03:21:16;14.25;;;8.18;;
67819;SDS011;54618;52.018;5.576;2022-12-17T03:24:01;12.90;;;7.85;;
67819;SDS011;54618;52.018;5.576;2022-12-17T03:26:44;14.52;;;7.97;;
67819;SDS011;54618;52.018;5.576;2022-12-17T03:29:28;13.55;;;7.60;;
67819;SDS011;54618;52.018;5.576;2022-12-17T03:32:13;14.00;;;7.90;;
67819;SDS011;54618;52.018;5.576;2022-12-17T03:34:57;13.57;;;8.05;;
67819;SDS011;54618;52.018;5.576;2022-12-17T03:37:41;14.70;;;7.85;;
67819;SDS011;54618;52.018;5.576;2022-12-17T03:40:25;13.48;;;7.88;;
67819;SDS011;54618;52.018;5.576;2022-12-17T03:43:10;14.55;;;8.27;;
67819;SDS011;54618;52.018;5.576;2022-12-17T03:45:54;13.63;;;8.02;;
67819;SDS011;54618;52.018;5.576;2022-12-17T03:48:39;14.57;;;8.02;;
67819;SDS011;54618;52.018;5.576;2022-12-17T03:51:23;14.07;;;7.78;;
67819;SDS011;54618;52.018;5.576;2022-12-17T03:54:08;13.93;;;8.25;;
67819;SDS011;54618;52.018;5.576;2022-12-17T03:56:52;14.60;;;8.10;;
67819;SDS011;54618;52.018;5.576;2022-12-17T03:59:36;13.55;;;7.97;;
67819;SDS011;54618;52.018;5.576;2022-12-17T04:02:20;13.57;;;8.15;;
67819;SDS011;54618;52.018;5.576;2022-12-17T04:05:04;15.57;;;8.50;;
67819;SDS011;54618;52.018;5.576;2022-12-17T04:07:48;15.18;;;8.40;;
67819;SDS011;54618;52.018;5.576;2022-12-17T04:10:33;13.77;;;7.88;;
67819;SDS011;54618;52.018;5.576;2022-12-17T04:13:17;13.65;;;7.75;;
67819;SDS011;54618;52.018;5.576;2022-12-17T04:16:01;15.32;;;8.45;;
67819;SDS011;54618;52.018;5.576;2022-12-17T04:18:45;14.70;;;8.02;;
67819;SDS011;54618;52.018;5.576;2022-12-17T04:21:29;14.30;;;8.70;;
67819;SDS011;54618;52.018;5.576;2022-12-17T04:24:13;15.15;;;8.18;;
67819;SDS011;54618;52.018;5.576;2022-12-17T04:26:57;12.00;;;7.47;;
67819;SDS011;54618;52.018;5.576;2022-12-17T04:29:41;14.63;;;8.27;;
67819;SDS011;54618;52.018;5.576;2022-12-17T04:32:25;14.35;;;8.20;;
67819;SDS011;54618;52.018;5.576;2022-12-17T04:35:09;15.52;;;8.50;;
67819;SDS011;54618;52.018;5.576;2022-12-17T04:37:54;16.30;;;8.57;;
67819;SDS011;54618;52.018;5.576;2022-12-17T04:40:38;16.08;;;8.82;;
67819;SDS011;54618;52.018;5.576;2022-12-17T04:43:22;16.48;;;8.70;;
67819;SDS011;54618;52.018;5.576;2022-12-17T04:46:06;15.70;;;8.70;;
67819;SDS011;54618;52.018;5.576;2022-12-17T04:48:50;16.05;;;8.55;;
67819;SDS011;54618;52.018;5.576;2022-12-17T04:51:34;16.17;;;8.70;;
67819;SDS011;54618;52.018;5.576;2022-12-17T04:54:18;18.27;;;9.55;;
67819;SDS011;54618;52.018;5.576;2022-12-17T04:57:02;14.75;;;8.73;;
67819;SDS011;54618;52.018;5.576;2022-12-17T04:59:46;16.65;;;8.82;;
67819;SDS011;54618;52.018;5.576;2022-12-17T05:02:30;18.55;;;9.98;;
67819;SDS011;54618;52.018;5.576;2022-12-17T05:05:14;16.08;;;9.55;;
67819;SDS011;54618;52.018;5.576;2022-12-17T05:07:58;15.85;;;9.02;;
67819;SDS011;54618;52.018;5.576;2022-12-17T05:10:43;16.77;;;9.32;;
67819;SDS011;54618;52.018;5.576;2022-12-17T05:13:27;15.40;;;8.57;;
67819;SDS011;54618;52.018;5.576;2022-12-17T05:16:11;16.00;;;9.00;;
67819;SDS011;54618;52.018;5.576;2022-12-17T05:18:55;15.27;;;8.55;;
67819;SDS011;54618;52.018;5.576;2022-12-17T05:21:39;14.65;;;8.85;;
67819;SDS011;54618;52.018;5.576;2022-12-17T05:24:23;15.65;;;8.90;;
67819;SDS011;54618;52.018;5.576;2022-12-17T05:27:07;16.25;;;9.00;;
67819;SDS011;54618;52.018;5.576;2022-12-17T05:29:52;16.30;;;8.75;;
67819;SDS011;54618;52.018;5.576;2022-12-17T05:32:36;15.52;;;8.93;;
67819;SDS011;54618;52.018;5.576;2022-12-17T05:35:20;15.98;;;9.15;;
67819;SDS011;54618;52.018;5.576;2022-12-17T05:38:05;15.77;;;9.55;;
67819;SDS011;54618;52.018;5.576;2022-12-17T05:40:50;16.50;;;9.05;;
67819;SDS011;54618;52.018;5.576;2022-12-17T05:43:42;16.90;;;9.13;;
67819;SDS011;54618;52.018;5.576;2022-12-17T05:46:27;17.30;;;9.70;;
67819;SDS011;54618;52.018;5.576;2022-12-17T05:49:12;17.27;;;9.20;;
67819;SDS011;54618;52.018;5.576;2022-12-17T05:51:55;15.52;;;8.60;;
67819;SDS011;54618;52.018;5.576;2022-12-17T05:54:40;17.75;;;9.23;;
67819;SDS011;54618;52.018;5.576;2022-12-17T05:57:24;16.70;;;9.23;;
67819;SDS011;54618;52.018;5.576;2022-12-17T06:00:08;16.55;;;9.57;;
67819;SDS011;54618;52.018;5.576;2022-12-17T06:03:02;17.05;;;9.38;;
67819;SDS011;54618;52.018;5.576;2022-12-17T06:05:47;16.65;;;9.57;;
67819;SDS011;54618;52.018;5.576;2022-12-17T06:08:35;19.13;;;10.10;;
67819;SDS011;54618;52.018;5.576;2022-12-17T06:11:19;17.15;;;9.65;;
67819;SDS011;54618;52.018;5.576;2022-12-17T06:14:03;19.23;;;9.95;;
67819;SDS011;54618;52.018;5.576;2022-12-17T06:16:47;15.82;;;9.50;;
67819;SDS011;54618;52.018;5.576;2022-12-17T06:19:31;17.80;;;9.65;;
67819;SDS011;54618;52.018;5.576;2022-12-17T06:22:15;18.00;;;9.85;;
67819;SDS011;54618;52.018;5.576;2022-12-17T06:25:00;16.88;;;9.98;;
67819;SDS011;54618;52.018;5.576;2022-12-17T06:27:44;16.15;;;9.18;;
67819;SDS011;54618;52.018;5.576;2022-12-17T06:30:28;18.15;;;9.70;;
67819;SDS011;54618;52.018;5.576;2022-12-17T06:33:12;18.45;;;9.65;;
67819;SDS011;54618;52.018;5.576;2022-12-17T06:35:56;15.93;;;9.25;;
67819;SDS011;54618;52.018;5.576;2022-12-17T06:38:41;17.48;;;9.77;;
67819;SDS011;54618;52.018;5.576;2022-12-17T06:41:26;18.77;;;10.05;;
67819;SDS011;54618;52.018;5.576;2022-12-17T06:44:10;19.20;;;10.35;;
67819;SDS011;54618;52.018;5.576;2022-12-17T06:46:55;18.13;;;10.32;;
67819;SDS011;54618;52.018;5.576;2022-12-17T06:49:39;18.05;;;10.40;;
67819;SDS011;54618;52.018;5.576;2022-12-17T06:52:23;19.02;;;10.20;;
67819;SDS011;54618;52.018;5.576;2022-12-17T06:55:07;18.33;;;10.82;;
67819;SDS011;54618;52.018;5.576;2022-12-17T06:57:55;17.42;;;9.48;;
67819;SDS011;54618;52.018;5.576;2022-12-17T07:00:40;19.27;;;10.48;;
67819;SDS011;54618;52.018;5.576;2022-12-17T07:03:25;19.65;;;10.73;;
67819;SDS011;54618;52.018;5.576;2022-12-17T07:06:09;21.30;;;11.20;;
67819;SDS011;54618;52.018;5.576;2022-12-17T07:08:53;20.10;;;10.68;;
67819;SDS011;54618;52.018;5.576;2022-12-17T07:11:37;18.63;;;10.10;;
67819;SDS011;54618;52.018;5.576;2022-12-17T07:14:21;18.77;;;10.43;;
67819;SDS011;54618;52.018;5.576;2022-12-17T07:17:05;19.45;;;10.55;;
67819;SDS011;54618;52.018;5.576;2022-12-17T07:19:49;20.67;;;10.80;;
67819;SDS011;54618;52.018;5.576;2022-12-17T07:22:33;20.05;;;11.35;;
67819;SDS011;54618;52.018;5.576;2022-12-17T07:25:17;18.77;;;10.30;;
67819;SDS011;54618;52.018;5.576;2022-12-17T07:28:01;18.48;;;10.43;;
67819;SDS011;54618;52.018;5.576;2022-12-17T07:30:45;19.15;;;10.88;;
67819;SDS011;54618;52.018;5.576;2022-12-17T07:33:29;20.10;;;10.65;;
67819;SDS011;54618;52.018;5.576;2022-12-17T07:36:13;18.02;;;10.38;;
67819;SDS011;54618;52.018;5.576;2022-12-17T07:38:57;19.13;;;10.38;;
67819;SDS011;54618;52.018;5.576;2022-12-17T07:41:41;17.90;;;10.60;;
67819;SDS011;54618;52.018;5.576;2022-12-17T07:44:25;19.38;;;10.75;;
67819;SDS011;54618;52.018;5.576;2022-12-17T07:47:09;19.33;;;10.52;;
67819;SDS011;54618;52.018;5.576;2022-12-17T07:49:53;19.25;;;10.18;;
67819;SDS011;54618;52.018;5.576;2022-12-17T07:52:37;19.23;;;10.18;;
67819;SDS011;54618;52.018;5.576;2022-12-17T07:55:21;20.50;;;10.70;;
67819;SDS011;54618;52.018;5.576;2022-12-17T07:58:06;19.25;;;10.52;;
67819;SDS011;54618;52.018;5.576;2022-12-17T08:00:54;17.55;;;9.85;;
67819;SDS011;54618;52.018;5.576;2022-12-17T08:03:39;20.27;;;10.88;;
67819;SDS011;54618;52.018;5.576;2022-12-17T08:06:23;19.88;;;10.52;;
67819;SDS011;54618;52.018;5.576;2022-12-17T08:09:07;18.83;;;10.38;;
67819;SDS011;54618;52.018;5.576;2022-12-17T08:11:51;18.80;;;10.80;;
67819;SDS011;54618;52.018;5.576;2022-12-17T08:14:35;18.30;;;10.57;;
67819;SDS011;54618;52.018;5.576;2022-12-17T08:17:19;17.58;;;9.90;;
67819;SDS011;54618;52.018;5.576;2022-12-17T08:20:04;20.20;;;11.18;;
67819;SDS011;54618;52.018;5.576;2022-12-17T08:22:48;18.38;;;10.25;;
67819;SDS011;54618;52.018;5.576;2022-12-17T08:25:32;20.90;;;11.68;;
67819;SDS011;54618;52.018;5.576;2022-12-17T08:28:17;18.33;;;10.48;;
67819;SDS011;54618;52.018;5.576;2022-12-17T08:31:01;18.27;;;10.40;;
67819;SDS011;54618;52.018;5.576;2022-12-17T08:33:45;20.67;;;10.98;;
67819;SDS011;54618;52.018;5.576;2022-12-17T08:36:29;20.38;;;10.77;;
67819;SDS011;54618;52.018;5.576;2022-12-17T08:39:13;19.92;;;10.93;;
67819;SDS011;54618;52.018;5.576;2022-12-17T08:41:57;21.00;;;11.20;;
67819;SDS011;54618;52.018;5.576;2022-12-17T08:44:41;22.02;;;11.88;;
67819;SDS011;54618;52.018;5.576;2022-12-17T08:47:25;19.10;;;10.57;;
67819;SDS011;54618;52.018;5.576;2022-12-17T08:50:09;22.55;;;11.52;;
67819;SDS011;54618;52.018;5.576;2022-12-17T08:53:00;22.58;;;11.93;;
67819;SDS011;54618;52.018;5.576;2022-12-17T08:55:45;19.67;;;11.32;;
67819;SDS011;54618;52.018;5.576;2022-12-17T08:58:30;20.90;;;11.55;;
67819;SDS011;54618;52.018;5.576;2022-12-17T09:01:14;22.27;;;11.23;;
67819;SDS011;54618;52.018;5.576;2022-12-17T09:03:58;22.20;;;11.57;;
67819;SDS011;54618;52.018;5.576;2022-12-17T09:06:42;20.25;;;10.88;;
67819;SDS011;54618;52.018;5.576;2022-12-17T09:09:26;20.75;;;11.57;;
67819;SDS011;54618;52.018;5.576;2022-12-17T09:12:10;22.33;;;12.02;;
67819;SDS011;54618;52.018;5.576;2022-12-17T09:14:54;21.05;;;11.15;;
67819;SDS011;54618;52.018;5.576;2022-12-17T09:17:38;21.63;;;11.73;;
67819;SDS011;54618;52.018;5.576;2022-12-17T09:20:22;21.98;;;11.32;;
67819;SDS011;54618;52.018;5.576;2022-12-17T09:23:06;21.05;;;11.93;;
67819;SDS011;54618;52.018;5.576;2022-12-17T09:25:58;21.67;;;11.25;;
67819;SDS011;54618;52.018;5.576;2022-12-17T09:28:42;20.95;;;11.82;;
67819;SDS011;54618;52.018;5.576;2022-12-17T09:31:26;22.17;;;11.57;;
67819;SDS011;54618;52.018;5.576;2022-12-17T09:34:10;25.00;;;11.98;;
67819;SDS011;54618;52.018;5.576;2022-12-17T09:36:55;21.25;;;11.77;;
67819;SDS011;54618;52.018;5.576;2022-12-17T09:39:39;22.65;;;12.00;;
67819;SDS011;54618;52.018;5.576;2022-12-17T09:42:44;23.55;;;12.13;;
67819;SDS011;54618;52.018;5.576;2022-12-17T09:51:20;21.77;;;11.57;;
67819;SDS011;54618;52.018;5.576;2022-12-17T09:54:09;19.88;;;10.95;;
67819;SDS011;54618;52.018;5.576;2022-12-17T09:57:05;23.48;;;12.18;;
67819;SDS011;54618;52.018;5.576;2022-12-17T09:59:55;24.92;;;12.20;;
67819;SDS011;54618;52.018;5.576;2022-12-17T10:02:39;24.70;;;12.05;;
67819;SDS011;54618;52.018;5.576;2022-12-17T10:05:24;25.48;;;12.45;;
67819;SDS011;54618;52.018;5.576;2022-12-17T10:08:13;22.30;;;12.10;;
67819;SDS011;54618;52.018;5.576;2022-12-17T10:11:08;25.60;;;12.55;;
67819;SDS011;54618;52.018;5.576;2022-12-17T10:14:09;24.40;;;12.38;;
67819;SDS011;54618;52.018;5.576;2022-12-17T10:17:00;24.63;;;12.90;;
67819;SDS011;54618;52.018;5.576;2022-12-17T10:19:44;22.50;;;12.10;;
67819;SDS011;54618;52.018;5.576;2022-12-17T10:25:54;25.83;;;13.13;;
67819;SDS011;54618;52.018;5.576;2022-12-17T10:28:39;23.90;;;12.43;;
67819;SDS011;54618;52.018;5.576;2022-12-17T10:31:28;25.10;;;12.43;;
67819;SDS011;54618;52.018;5.576;2022-12-17T10:34:14;22.67;;;12.15;;
67819;SDS011;54618;52.018;5.576;2022-12-17T10:37:02;21.58;;;12.32;;
67819;SDS011;54618;52.018;5.576;2022-12-17T10:39:58;21.95;;;12.13;;
67819;SDS011;54618;52.018;5.576;2022-12-17T10:42:43;22.45;;;11.55;;
67819;SDS011;54618;52.018;5.576;2022-12-17T10:45:29;22.42;;;11.48;;
67819;SDS011;54618;52.018;5.576;2022-12-17T10:48:16;23.45;;;13.00;;
67819;SDS011;54618;52.018;5.576;2022-12-17T10:51:01;24.30;;;12.82;;
67819;SDS011;54618;52.018;5.576;2022-12-17T10:53:50;23.23;;;12.18;;
67819;SDS011;54618;52.018;5.576;2022-12-17T10:56:35;24.05;;;12.55;;
67819;SDS011;54618;52.018;5.576;2022-12-17T10:59:35;26.63;;;13.10;;
67819;SDS011;54618;52.018;5.576;2022-12-17T11:02:25;22.27;;;11.80;;
67819;SDS011;54618;52.018;5.576;2022-12-17T11:05:12;22.88;;;11.98;;
67819;SDS011;54618;52.018;5.576;2022-12-17T11:07:58;25.70;;;12.80;;
67819;SDS011;54618;52.018;5.576;2022-12-17T11:10:44;23.85;;;12.75;;
67819;SDS011;54618;52.018;5.576;2022-12-17T11:13:49;24.13;;;13.02;;
67819;SDS011;54618;52.018;5.576;2022-12-17T11:16:39;23.15;;;11.93;;
67819;SDS011;54618;52.018;5.576;2022-12-17T11:19:42;22.33;;;12.15;;
67819;SDS011;54618;52.018;5.576;2022-12-17T11:22:48;23.88;;;12.48;;
67819;SDS011;54618;52.018;5.576;2022-12-17T11:28:35;25.17;;;12.65;;
67819;SDS011;54618;52.018;5.576;2022-12-17T11:31:30;21.10;;;11.38;;
67819;SDS011;54618;52.018;5.576;2022-12-17T11:41:13;24.17;;;12.65;;
67819;SDS011;54618;52.018;5.576;2022-12-17T11:47:35;22.98;;;11.98;;
67819;SDS011;54618;52.018;5.576;2022-12-17T11:53:24;25.20;;;11.65;;
67819;SDS011;54618;52.018;5.576;2022-12-17T11:56:22;23.02;;;12.43;;
67819;SDS011;54618;52.018;5.576;2022-12-17T12:14:38;27.90;;;13.88;;
67819;SDS011;54618;52.018;5.576;2022-12-17T12:17:47;27.80;;;13.55;;
67819;SDS011;54618;52.018;5.576;2022-12-17T12:20:47;26.52;;;13.20;;
67819;SDS011;54618;52.018;5.576;2022-12-17T12:26:52;23.58;;;12.15;;
67819;SDS011;54618;52.018;5.576;2022-12-17T12:30:03;27.65;;;14.07;;
67819;SDS011;54618;52.018;5.576;2022-12-17T12:33:12;28.80;;;13.57;;
67819;SDS011;54618;52.018;5.576;2022-12-17T12:36:11;25.75;;;13.65;;
67819;SDS011;54618;52.018;5.576;2022-12-17T12:38:58;28.75;;;14.40;;
67819;SDS011;54618;52.018;5.576;2022-12-17T12:44:47;29.90;;;13.52;;
67819;SDS011;54618;52.018;5.576;2022-12-17T12:47:45;27.55;;;13.55;;
67819;SDS011;54618;52.018;5.576;2022-12-17T12:50:43;25.33;;;14.30;;
67819;SDS011;54618;52.018;5.576;2022-12-17T12:53:33;26.08;;;12.90;;
67819;SDS011;54618;52.018;5.576;2022-12-17T12:56:28;28.58;;;14.30;;
67819;SDS011;54618;52.018;5.576;2022-12-17T12:59:35;31.73;;;14.73;;
67819;SDS011;54618;52.018;5.576;2022-12-17T13:10:33;27.38;;;14.13;;
67819;SDS011;54618;52.018;5.576;2022-12-17T13:22:10;28.05;;;14.55;;
67819;SDS011;54618;52.018;5.576;2022-12-17T13:24:43;27.90;;;14.98;;
67819;SDS011;54618;52.018;5.576;2022-12-17T13:27:29;28.23;;;14.55;;
67819;SDS011;54618;52.018;5.576;2022-12-17T13:35:42;30.23;;;15.68;;
67819;SDS011;54618;52.018;5.576;2022-12-17T13:38:19;28.83;;;14.32;;
67819;SDS011;54618;52.018;5.576;2022-12-17T13:40:59;27.77;;;15.05;;
67819;SDS011;54618;52.018;5.576;2022-12-17T13:43:38;29.98;;;15.32;;
67819;SDS011;54618;52.018;5.576;2022-12-17T13:46:23;28.52;;;14.70;;
67819;SDS011;54618;52.018;5.576;2022-12-17T13:48:54;25.77;;;13.70;;
67819;SDS011;54618;52.018;5.576;2022-12-17T13:51:22;28.45;;;14.77;;
67819;SDS011;54618;52.018;5.576;2022-12-17T13:53:52;28.80;;;15.15;;
67819;SDS011;54618;52.018;5.576;2022-12-17T13:56:21;28.70;;;14.68;;
67819;SDS011;54618;52.018;5.576;2022-12-17T13:58:51;26.60;;;14.90;;
67819;SDS011;54618;52.018;5.576;2022-12-17T14:01:19;28.23;;;15.13;;
67819;SDS011;54618;52.018;5.576;2022-12-17T14:03:49;31.52;;;15.60;;
67819;SDS011;54618;52.018;5.576;2022-12-17T14:06:38;29.50;;;15.32;;
67819;SDS011;54618;52.018;5.576;2022-12-17T14:09:03;27.75;;;14.60;;
67819;SDS011;54618;52.018;5.576;2022-12-17T14:11:30;29.05;;;15.52;;
67819;SDS011;54618;52.018;5.576;2022-12-17T14:14:30;27.17;;;14.85;;
67819;SDS011;54618;52.018;5.576;2022-12-17T14:17:01;26.52;;;14.75;;
67819;SDS011;54618;52.018;5.576;2022-12-17T14:19:27;28.15;;;14.95;;
67819;SDS011;54618;52.018;5.576;2022-12-17T14:21:54;26.50;;;15.07;;
67819;SDS011;54618;52.018;5.576;2022-12-17T14:24:21;27.23;;;14.35;;
67819;SDS011;54618;52.018;5.576;2022-12-17T14:26:55;27.75;;;15.13;;
67819;SDS011;54618;52.018;5.576;2022-12-17T14:29:23;29.73;;;15.35;;
67819;SDS011;54618;52.018;5.576;2022-12-17T14:31:51;27.77;;;14.75;;
67819;SDS011;54618;52.018;5.576;2022-12-17T14:34:17;24.73;;;14.15;;
67819;SDS011;54618;52.018;5.576;2022-12-17T14:36:43;28.92;;;15.50;;
67819;SDS011;54618;52.018;5.576;2022-12-17T14:39:23;30.40;;;15.73;;
67819;SDS011;54618;52.018;5.576;2022-12-17T14:41:51;30.50;;;15.25;;
67819;SDS011;54618;52.018;5.576;2022-12-17T14:44:39;32.33;;;15.55;;
67819;SDS011;54618;52.018;5.576;2022-12-17T14:49:49;29.25;;;15.77;;
67819;SDS011;54618;52.018;5.576;2022-12-17T14:52:35;28.13;;;15.93;;
67819;SDS011;54618;52.018;5.576;2022-12-17T14:57:48;28.60;;;15.00;;
67819;SDS011;54618;52.018;5.576;2022-12-17T15:00:18;27.30;;;14.18;;
67819;SDS011;54618;52.018;5.576;2022-12-17T15:02:49;27.45;;;14.70;;
67819;SDS011;54618;52.018;5.576;2022-12-17T15:05:16;29.70;;;15.32;;
67819;SDS011;54618;52.018;5.576;2022-12-17T15:07:42;29.02;;;15.00;;
67819;SDS011;54618;52.018;5.576;2022-12-17T15:10:12;26.00;;;13.95;;
67819;SDS011;54618;52.018;5.576;2022-12-17T15:12:41;27.58;;;14.82;;
67819;SDS011;54618;52.018;5.576;2022-12-17T15:15:11;27.27;;;14.52;;
67819;SDS011;54618;52.018;5.576;2022-12-17T15:17:38;26.50;;;14.15;;
67819;SDS011;54618;52.018;5.576;2022-12-17T15:20:03;24.52;;;13.85;;
67819;SDS011;54618;52.018;5.576;2022-12-17T15:22:29;26.33;;;13.73;;
67819;SDS011;54618;52.018;5.576;2022-12-17T15:24:54;29.00;;;15.55;;
67819;SDS011;54618;52.018;5.576;2022-12-17T15:27:20;28.40;;;14.05;;
67819;SDS011;54618;52.018;5.576;2022-12-17T15:29:46;25.45;;;13.85;;
67819;SDS011;54618;52.018;5.576;2022-12-17T15:32:18;26.75;;;13.90;;
67819;SDS011;54618;52.018;5.576;2022-12-17T15:34:45;25.23;;;14.38;;
67819;SDS011;54618;52.018;5.576;2022-12-17T15:37:13;26.83;;;14.50;;
67819;SDS011;54618;52.018;5.576;2022-12-17T15:39:39;24.55;;;13.73;;
67819;SDS011;54618;52.018;5.576;2022-12-17T15:42:04;26.27;;;14.32;;
67819;SDS011;54618;52.018;5.576;2022-12-17T15:44:49;24.90;;;12.80;;
67819;SDS011;54618;52.018;5.576;2022-12-17T15:47:14;27.42;;;14.07;;
67819;SDS011;54618;52.018;5.576;2022-12-17T15:49:40;27.15;;;14.45;;
67819;SDS011;54618;52.018;5.576;2022-12-17T15:52:05;28.25;;;14.77;;
67819;SDS011;54618;52.018;5.576;2022-12-17T15:54:31;26.38;;;13.90;;
67819;SDS011;54618;52.018;5.576;2022-12-17T15:56:56;25.83;;;13.70;;
67819;SDS011;54618;52.018;5.576;2022-12-17T15:59:22;24.40;;;13.52;;
67819;SDS011;54618;52.018;5.576;2022-12-17T16:01:48;25.30;;;13.65;;
67819;SDS011;54618;52.018;5.576;2022-12-17T16:04:13;28.38;;;14.63;;
67819;SDS011;54618;52.018;5.576;2022-12-17T16:06:39;30.17;;;15.15;;
67819;SDS011;54618;52.018;5.576;2022-12-17T16:09:04;26.58;;;14.23;;
67819;SDS011;54618;52.018;5.576;2022-12-17T16:11:30;27.80;;;15.10;;
67819;SDS011;54618;52.018;5.576;2022-12-17T16:13:55;27.90;;;14.75;;
67819;SDS011;54618;52.018;5.576;2022-12-17T16:16:21;27.05;;;14.25;;
67819;SDS011;54618;52.018;5.576;2022-12-17T16:18:48;25.88;;;13.82;;
67819;SDS011;54618;52.018;5.576;2022-12-17T16:21:13;26.35;;;13.70;;
67819;SDS011;54618;52.018;5.576;2022-12-17T16:23:39;27.50;;;13.93;;
67819;SDS011;54618;52.018;5.576;2022-12-17T16:26:06;24.23;;;13.35;;
67819;SDS011;54618;52.018;5.576;2022-12-17T16:28:32;26.58;;;14.10;;
67819;SDS011;54618;52.018;5.576;2022-12-17T16:33:33;26.00;;;13.98;;
67819;SDS011;54618;52.018;5.576;2022-12-17T16:35:59;27.15;;;14.27;;
67819;SDS011;54618;52.018;5.576;2022-12-17T16:38:25;26.38;;;14.20;;
67819;SDS011;54618;52.018;5.576;2022-12-17T16:40:55;25.52;;;14.05;;
67819;SDS011;54618;52.018;5.576;2022-12-17T16:43:21;28.20;;;15.05;;
67819;SDS011;54618;52.018;5.576;2022-12-17T16:45:48;27.23;;;14.32;;
67819;SDS011;54618;52.018;5.576;2022-12-17T16:48:15;27.13;;;13.95;;
67819;SDS011;54618;52.018;5.576;2022-12-17T16:50:41;27.08;;;14.40;;
67819;SDS011;54618;52.018;5.576;2022-12-17T16:53:08;27.77;;;14.77;;
67819;SDS011;54618;52.018;5.576;2022-12-17T16:55:38;25.52;;;13.80;;
67819;SDS011;54618;52.018;5.576;2022-12-17T16:58:05;26.63;;;14.13;;
67819;SDS011;54618;52.018;5.576;2022-12-17T17:00:30;25.60;;;13.68;;
67819;SDS011;54618;52.018;5.576;2022-12-17T17:02:56;25.95;;;13.93;;
67819;SDS011;54618;52.018;5.576;2022-12-17T17:05:22;29.30;;;14.98;;
67819;SDS011;54618;52.018;5.576;2022-12-17T17:07:47;27.33;;;13.93;;
67819;SDS011;54618;52.018;5.576;2022-12-17T17:10:13;27.90;;;13.95;;
67819;SDS011;54618;52.018;5.576;2022-12-17T17:12:38;24.40;;;13.63;;
67819;SDS011;54618;52.018;5.576;2022-12-17T17:15:04;25.85;;;12.70;;
67819;SDS011;54618;52.018;5.576;2022-12-17T17:17:30;27.30;;;13.82;;
67819;SDS011;54618;52.018;5.576;2022-12-17T17:19:55;27.13;;;13.90;;
67819;SDS011;54618;52.018;5.576;2022-12-17T17:22:21;25.80;;;13.25;;